sensor_id;sensor_type;location;lat;lon;timestamp;P1;durP1;ratioP1;P2;durP2;ratioP2
21235;SDS011;10775;42.678;26.324;2022-09-27T00:00:56;4.65;;;3.95;;
21235;SDS011;10775;42.678;26.324;2022-09-27T00:03:23;5.95;;;4.45;;
21235;SDS011;10775;42.678;26.324;2022-09-27T00:05:48;5.68;;;4.60;;
21235;SDS011;10775;42.678;26.324;2022-09-27T00:08:14;4.95;;;4.55;;
21235;SDS011;10775;42.678;26.324;2022-09-27T00:10:39;4.82;;;4.18;;
21235;SDS011;10775;42.678;26.324;2022-09-27T00:13:05;5.45;;;4.00;;
21235;SDS011;10775;42.678;26.324;2022-09-27T00:15:30;6.72;;;4.38;;
21235;SDS011;10775;42.678;26.324;2022-09-27T00:17:56;4.82;;;4.13;;
21235;SDS011;10775;42.678;26.324;2022-09-27T00:20:21;4.68;;;4.28;;
21235;SDS011;10775;42.678;26.324;2022-09-27T00:22:47;5.30;;;4.63;;
21235;SDS011;10775;42.678;26.324;2022-09-27T00:25:14;4.50;;;4.07;;
21235;SDS011;10775;42.678;26.324;2022-09-27T00:27:40;6.20;;;4.25;;
21235;SDS011;10775;42.678;26.324;2022-09-27T00:30:05;5.78;;;4.38;;
21235;SDS011;10775;42.678;26.324;2022-09-27T00:32:31;5.75;;;4.10;;
21235;SDS011;10775;42.678;26.324;2022-09-27T00:34:57;4.47;;;4.00;;
21235;SDS011;10775;42.678;26.324;2022-09-27T00:37:23;4.93;;;4.28;;
21235;SDS011;10775;42.678;26.324;2022-09-27T00:39:50;4.75;;;4.32;;
21235;SDS011;10775;42.678;26.324;2022-09-27T00:42:15;7.25;;;4.70;;
21235;SDS011;10775;42.678;26.324;2022-09-27T00:50:06;4.75;;;4.25;;
21235;SDS011;10775;42.678;26.324;2022-09-27T00:52:59;3.90;;;3.42;;
21235;SDS011;10775;42.678;26.324;2022-09-27T00:55:33;3.85;;;3.55;;
21235;SDS011;10775;42.678;26.324;2022-09-27T00:58:03;4.43;;;4.00;;
21235;SDS011;10775;42.678;26.324;2022-09-27T01:00:30;4.50;;;4.10;;
21235;SDS011;10775;42.678;26.324;2022-09-27T01:02:56;4.57;;;4.18;;
21235;SDS011;10775;42.678;26.324;2022-09-27T01:05:23;5.00;;;4.22;;
21235;SDS011;10775;42.678;26.324;2022-09-27T01:10:23;3.92;;;3.25;;
21235;SDS011;10775;42.678;26.324;2022-09-27T01:15:22;4.20;;;3.75;;
21235;SDS011;10775;42.678;26.324;2022-09-27T01:17:59;4.72;;;4.30;;
21235;SDS011;10775;42.678;26.324;2022-09-27T01:23:38;4.57;;;4.10;;
21235;SDS011;10775;42.678;26.324;2022-09-27T01:32:31;4.53;;;4.13;;
21235;SDS011;10775;42.678;26.324;2022-09-27T01:35:47;4.05;;;3.63;;
21235;SDS011;10775;42.678;26.324;2022-09-27T01:38:16;5.13;;;4.25;;
21235;SDS011;10775;42.678;26.324;2022-09-27T01:46:04;4.85;;;4.30;;
21235;SDS011;10775;42.678;26.324;2022-09-27T01:48:36;4.97;;;4.45;;
21235;SDS011;10775;42.678;26.324;2022-09-27T01:51:41;4.97;;;4.47;;
21235;SDS011;10775;42.678;26.324;2022-09-27T01:54:03;5.50;;;3.95;;
21235;SDS011;10775;42.678;26.324;2022-09-27T01:56:39;3.67;;;3.38;;
21235;SDS011;10775;42.678;26.324;2022-09-27T01:59:14;5.72;;;4.28;;
21235;SDS011;10775;42.678;26.324;2022-09-27T02:01:53;5.35;;;4.30;;
21235;SDS011;10775;42.678;26.324;2022-09-27T02:04:25;4.68;;;4.20;;
21235;SDS011;10775;42.678;26.324;2022-09-27T02:07:02;4.70;;;4.28;;
21235;SDS011;10775;42.678;26.324;2022-09-27T02:09:47;4.97;;;4.22;;
21235;SDS011;10775;42.678;26.324;2022-09-27T02:12:18;4.85;;;4.00;;
21235;SDS011;10775;42.678;26.324;2022-09-27T02:15:00;5.10;;;4.60;;
21235;SDS011;10775;42.678;26.324;2022-09-27T02:20:15;5.15;;;4.53;;
21235;SDS011;10775;42.678;26.324;2022-09-27T02:30:39;4.88;;;4.38;;
21235;SDS011;10775;42.678;26.324;2022-09-27T02:33:05;5.25;;;4.60;;
21235;SDS011;10775;42.678;26.324;2022-09-27T02:35:31;5.50;;;5.00;;
21235;SDS011;10775;42.678;26.324;2022-09-27T02:37:58;6.03;;;4.47;;
21235;SDS011;10775;42.678;26.324;2022-09-27T02:40:25;4.55;;;4.13;;
21235;SDS011;10775;42.678;26.324;2022-09-27T02:42:55;4.97;;;4.47;;
21235;SDS011;10775;42.678;26.324;2022-09-27T02:45:21;4.07;;;3.53;;
21235;SDS011;10775;42.678;26.324;2022-09-27T02:48:07;4.35;;;3.95;;
21235;SDS011;10775;42.678;26.324;2022-09-27T02:58:57;5.55;;;4.78;;
21235;SDS011;10775;42.678;26.324;2022-09-27T03:01:51;5.20;;;4.70;;
21235;SDS011;10775;42.678;26.324;2022-09-27T03:04:19;4.03;;;3.63;;
21235;SDS011;10775;42.678;26.324;2022-09-27T03:06:54;4.93;;;4.45;;
21235;SDS011;10775;42.678;26.324;2022-09-27T03:09:24;5.28;;;3.92;;
21235;SDS011;10775;42.678;26.324;2022-09-27T03:11:53;4.57;;;4.18;;
21235;SDS011;10775;42.678;26.324;2022-09-27T03:14:19;5.30;;;4.72;;
21235;SDS011;10775;42.678;26.324;2022-09-27T03:16:45;4.28;;;3.88;;
21235;SDS011;10775;42.678;26.324;2022-09-27T03:19:11;5.03;;;4.45;;
21235;SDS011;10775;42.678;26.324;2022-09-27T03:21:36;6.47;;;4.30;;
21235;SDS011;10775;42.678;26.324;2022-09-27T03:24:02;5.45;;;3.97;;
21235;SDS011;10775;42.678;26.324;2022-09-27T03:26:27;5.05;;;4.30;;
21235;SDS011;10775;42.678;26.324;2022-09-27T03:28:53;4.85;;;4.38;;
21235;SDS011;10775;42.678;26.324;2022-09-27T03:31:19;6.28;;;4.30;;
21235;SDS011;10775;42.678;26.324;2022-09-27T03:33:44;5.32;;;4.28;;
21235;SDS011;10775;42.678;26.324;2022-09-27T03:36:10;4.35;;;3.95;;
21235;SDS011;10775;42.678;26.324;2022-09-27T03:38:36;5.07;;;4.15;;
21235;SDS011;10775;42.678;26.324;2022-09-27T03:41:02;6.53;;;4.25;;
21235;SDS011;10775;42.678;26.324;2022-09-27T03:43:28;4.70;;;4.18;;
21235;SDS011;10775;42.678;26.324;2022-09-27T03:45:54;5.00;;;4.47;;
21235;SDS011;10775;42.678;26.324;2022-09-27T03:48:20;4.97;;;4.45;;
21235;SDS011;10775;42.678;26.324;2022-09-27T03:50:45;6.10;;;4.57;;
21235;SDS011;10775;42.678;26.324;2022-09-27T03:53:11;8.07;;;4.97;;
21235;SDS011;10775;42.678;26.324;2022-09-27T03:55:37;4.90;;;4.40;;
21235;SDS011;10775;42.678;26.324;2022-09-27T03:58:03;6.85;;;3.70;;
21235;SDS011;10775;42.678;26.324;2022-09-27T04:00:29;5.40;;;4.40;;
21235;SDS011;10775;42.678;26.324;2022-09-27T04:02:56;5.28;;;4.15;;
21235;SDS011;10775;42.678;26.324;2022-09-27T04:05:23;4.22;;;3.83;;
21235;SDS011;10775;42.678;26.324;2022-09-27T04:07:50;4.85;;;4.35;;
21235;SDS011;10775;42.678;26.324;2022-09-27T04:10:15;4.90;;;4.47;;
21235;SDS011;10775;42.678;26.324;2022-09-27T04:12:42;12.55;;;7.05;;
21235;SDS011;10775;42.678;26.324;2022-09-27T04:15:08;10.95;;;7.32;;
21235;SDS011;10775;42.678;26.324;2022-09-27T04:17:34;5.15;;;4.63;;
21235;SDS011;10775;42.678;26.324;2022-09-27T04:20:00;5.25;;;4.75;;
21235;SDS011;10775;42.678;26.324;2022-09-27T04:22:27;5.47;;;4.68;;
21235;SDS011;10775;42.678;26.324;2022-09-27T04:24:53;5.32;;;4.72;;
21235;SDS011;10775;42.678;26.324;2022-09-27T04:27:19;6.13;;;4.80;;
21235;SDS011;10775;42.678;26.324;2022-09-27T04:29:46;5.47;;;4.78;;
21235;SDS011;10775;42.678;26.324;2022-09-27T04:32:11;5.68;;;4.57;;
21235;SDS011;10775;42.678;26.324;2022-09-27T04:34:37;4.93;;;4.50;;
21235;SDS011;10775;42.678;26.324;2022-09-27T04:37:21;5.00;;;4.38;;
21235;SDS011;10775;42.678;26.324;2022-09-27T04:39:47;5.38;;;4.72;;
21235;SDS011;10775;42.678;26.324;2022-09-27T04:42:13;5.53;;;4.55;;
21235;SDS011;10775;42.678;26.324;2022-09-27T04:44:39;4.93;;;4.43;;
21235;SDS011;10775;42.678;26.324;2022-09-27T04:47:05;5.47;;;4.72;;
21235;SDS011;10775;42.678;26.324;2022-09-27T04:49:30;4.80;;;3.90;;
21235;SDS011;10775;42.678;26.324;2022-09-27T04:51:56;6.85;;;5.10;;
21235;SDS011;10775;42.678;26.324;2022-09-27T04:54:21;7.07;;;5.00;;
21235;SDS011;10775;42.678;26.324;2022-09-27T04:56:47;5.25;;;4.75;;
21235;SDS011;10775;42.678;26.324;2022-09-27T04:59:13;4.90;;;4.40;;
21235;SDS011;10775;42.678;26.324;2022-09-27T05:01:39;6.07;;;4.82;;
21235;SDS011;10775;42.678;26.324;2022-09-27T05:04:05;5.97;;;4.38;;
21235;SDS011;10775;42.678;26.324;2022-09-27T05:06:30;7.60;;;5.22;;
21235;SDS011;10775;42.678;26.324;2022-09-27T05:08:56;6.38;;;4.68;;
21235;SDS011;10775;42.678;26.324;2022-09-27T05:11:22;5.82;;;4.63;;
21235;SDS011;10775;42.678;26.324;2022-09-27T05:13:48;5.47;;;4.95;;
21235;SDS011;10775;42.678;26.324;2022-09-27T05:16:14;6.00;;;4.60;;
21235;SDS011;10775;42.678;26.324;2022-09-27T05:18:41;6.72;;;4.80;;
21235;SDS011;10775;42.678;26.324;2022-09-27T05:21:06;6.10;;;4.35;;
21235;SDS011;10775;42.678;26.324;2022-09-27T05:23:32;6.43;;;4.93;;
21235;SDS011;10775;42.678;26.324;2022-09-27T05:25:57;27.00;;;15.63;;
21235;SDS011;10775;42.678;26.324;2022-09-27T05:28:27;36.58;;;23.77;;
21235;SDS011;10775;42.678;26.324;2022-09-27T05:30:52;6.35;;;5.55;;
21235;SDS011;10775;42.678;26.324;2022-09-27T05:33:18;6.28;;;4.93;;
21235;SDS011;10775;42.678;26.324;2022-09-27T05:35:49;6.35;;;5.13;;
21235;SDS011;10775;42.678;26.324;2022-09-27T05:38:16;5.68;;;4.93;;
21235;SDS011;10775;42.678;26.324;2022-09-27T05:40:42;7.25;;;5.13;;
21235;SDS011;10775;42.678;26.324;2022-09-27T05:43:09;6.25;;;5.15;;
21235;SDS011;10775;42.678;26.324;2022-09-27T05:45:35;5.05;;;4.45;;
21235;SDS011;10775;42.678;26.324;2022-09-27T05:48:00;3.80;;;3.38;;
21235;SDS011;10775;42.678;26.324;2022-09-27T05:50:27;4.45;;;3.83;;
21235;SDS011;10775;42.678;26.324;2022-09-27T05:52:53;5.63;;;4.95;;
21235;SDS011;10775;42.678;26.324;2022-09-27T05:55:19;6.63;;;5.93;;
21235;SDS011;10775;42.678;26.324;2022-09-27T05:58:00;7.00;;;4.88;;
21235;SDS011;10775;42.678;26.324;2022-09-27T06:00:29;7.65;;;5.57;;
21235;SDS011;10775;42.678;26.324;2022-09-27T06:02:58;10.73;;;6.75;;
21235;SDS011;10775;42.678;26.324;2022-09-27T06:05:26;10.95;;;8.10;;
21235;SDS011;10775;42.678;26.324;2022-09-27T06:07:57;7.60;;;5.78;;
21235;SDS011;10775;42.678;26.324;2022-09-27T06:10:24;6.50;;;4.43;;
21235;SDS011;10775;42.678;26.324;2022-09-27T06:12:50;14.25;;;9.88;;
21235;SDS011;10775;42.678;26.324;2022-09-27T06:15:18;9.25;;;5.72;;
21235;SDS011;10775;42.678;26.324;2022-09-27T06:17:43;7.88;;;6.35;;
21235;SDS011;10775;42.678;26.324;2022-09-27T06:20:09;9.30;;;6.35;;
21235;SDS011;10775;42.678;26.324;2022-09-27T06:22:35;9.68;;;6.28;;
21235;SDS011;10775;42.678;26.324;2022-09-27T06:25:01;8.52;;;6.32;;
21235;SDS011;10775;42.678;26.324;2022-09-27T06:27:28;8.00;;;6.95;;
21235;SDS011;10775;42.678;26.324;2022-09-27T06:29:55;9.32;;;7.35;;
21235;SDS011;10775;42.678;26.324;2022-09-27T06:32:20;7.55;;;6.20;;
21235;SDS011;10775;42.678;26.324;2022-09-27T06:34:46;9.10;;;6.75;;
21235;SDS011;10775;42.678;26.324;2022-09-27T06:37:11;10.75;;;6.97;;
21235;SDS011;10775;42.678;26.324;2022-09-27T06:39:37;11.07;;;7.00;;
21235;SDS011;10775;42.678;26.324;2022-09-27T06:42:03;14.15;;;8.70;;
21235;SDS011;10775;42.678;26.324;2022-09-27T06:44:28;9.82;;;6.38;;
21235;SDS011;10775;42.678;26.324;2022-09-27T06:46:54;9.00;;;6.05;;
21235;SDS011;10775;42.678;26.324;2022-09-27T06:49:20;10.25;;;7.28;;
21235;SDS011;10775;42.678;26.324;2022-09-27T06:51:49;7.38;;;5.38;;
21235;SDS011;10775;42.678;26.324;2022-09-27T06:54:16;10.02;;;6.13;;
21235;SDS011;10775;42.678;26.324;2022-09-27T06:56:42;9.50;;;7.35;;
21235;SDS011;10775;42.678;26.324;2022-09-27T06:59:07;9.57;;;6.20;;
21235;SDS011;10775;42.678;26.324;2022-09-27T07:01:51;7.40;;;6.50;;
21235;SDS011;10775;42.678;26.324;2022-09-27T07:04:17;6.68;;;5.22;;
21235;SDS011;10775;42.678;26.324;2022-09-27T07:06:43;10.40;;;5.95;;
21235;SDS011;10775;42.678;26.324;2022-09-27T07:09:09;8.65;;;5.53;;
21235;SDS011;10775;42.678;26.324;2022-09-27T07:11:35;9.55;;;6.15;;
21235;SDS011;10775;42.678;26.324;2022-09-27T07:14:03;8.25;;;6.18;;
21235;SDS011;10775;42.678;26.324;2022-09-27T07:16:30;9.50;;;6.10;;
21235;SDS011;10775;42.678;26.324;2022-09-27T07:18:58;7.75;;;6.18;;
21235;SDS011;10775;42.678;26.324;2022-09-27T07:21:25;10.70;;;8.00;;
21235;SDS011;10775;42.678;26.324;2022-09-27T07:23:51;14.70;;;8.27;;
21235;SDS011;10775;42.678;26.324;2022-09-27T07:26:18;10.93;;;7.05;;
21235;SDS011;10775;42.678;26.324;2022-09-27T07:28:44;19.10;;;15.15;;
21235;SDS011;10775;42.678;26.324;2022-09-27T07:31:10;9.23;;;6.93;;
21235;SDS011;10775;42.678;26.324;2022-09-27T07:33:36;14.68;;;10.60;;
21235;SDS011;10775;42.678;26.324;2022-09-27T07:36:06;12.00;;;6.68;;
21235;SDS011;10775;42.678;26.324;2022-09-27T07:38:36;12.05;;;8.48;;
21235;SDS011;10775;42.678;26.324;2022-09-27T07:41:05;8.35;;;7.47;;
21235;SDS011;10775;42.678;26.324;2022-09-27T07:43:31;18.75;;;10.93;;
21235;SDS011;10775;42.678;26.324;2022-09-27T07:45:57;9.85;;;7.07;;
21235;SDS011;10775;42.678;26.324;2022-09-27T07:48:23;9.95;;;7.32;;
21235;SDS011;10775;42.678;26.324;2022-09-27T07:50:48;9.52;;;6.85;;
21235;SDS011;10775;42.678;26.324;2022-09-27T07:53:14;10.98;;;7.38;;
21235;SDS011;10775;42.678;26.324;2022-09-27T07:55:40;12.10;;;7.53;;
21235;SDS011;10775;42.678;26.324;2022-09-27T07:58:07;11.30;;;7.57;;
21235;SDS011;10775;42.678;26.324;2022-09-27T08:00:35;12.77;;;8.65;;
21235;SDS011;10775;42.678;26.324;2022-09-27T08:03:05;19.65;;;10.88;;
21235;SDS011;10775;42.678;26.324;2022-09-27T08:05:32;17.85;;;9.88;;
21235;SDS011;10775;42.678;26.324;2022-09-27T08:07:58;19.02;;;10.32;;
21235;SDS011;10775;42.678;26.324;2022-09-27T08:10:24;27.95;;;13.13;;
21235;SDS011;10775;42.678;26.324;2022-09-27T08:12:56;18.15;;;11.40;;
21235;SDS011;10775;42.678;26.324;2022-09-27T08:15:22;19.25;;;11.60;;
21235;SDS011;10775;42.678;26.324;2022-09-27T08:17:48;25.38;;;15.15;;
21235;SDS011;10775;42.678;26.324;2022-09-27T08:20:15;17.70;;;10.23;;
21235;SDS011;10775;42.678;26.324;2022-09-27T08:22:41;16.17;;;10.07;;
21235;SDS011;10775;42.678;26.324;2022-09-27T08:25:07;20.33;;;11.23;;
21235;SDS011;10775;42.678;26.324;2022-09-27T08:27:33;15.82;;;10.13;;
21235;SDS011;10775;42.678;26.324;2022-09-27T08:29:59;15.80;;;9.48;;
21235;SDS011;10775;42.678;26.324;2022-09-27T08:32:24;15.90;;;10.25;;
21235;SDS011;10775;42.678;26.324;2022-09-27T08:34:52;18.67;;;11.05;;
21235;SDS011;10775;42.678;26.324;2022-09-27T08:37:17;15.00;;;11.38;;
21235;SDS011;10775;42.678;26.324;2022-09-27T08:39:43;26.48;;;10.65;;
21235;SDS011;10775;42.678;26.324;2022-09-27T08:47:47;12.82;;;8.65;;
21235;SDS011;10775;42.678;26.324;2022-09-27T08:50:35;16.70;;;8.30;;
21235;SDS011;10775;42.678;26.324;2022-09-27T08:55:44;10.70;;;8.38;;
21235;SDS011;10775;42.678;26.324;2022-09-27T08:58:18;8.40;;;7.57;;
21235;SDS011;10775;42.678;26.324;2022-09-27T09:00:50;13.70;;;8.35;;
21235;SDS011;10775;42.678;26.324;2022-09-27T09:03:43;13.02;;;9.05;;
21235;SDS011;10775;42.678;26.324;2022-09-27T09:06:23;12.32;;;8.07;;
21235;SDS011;10775;42.678;26.324;2022-09-27T09:08:59;10.88;;;8.52;;
21235;SDS011;10775;42.678;26.324;2022-09-27T09:11:41;10.68;;;8.23;;
21235;SDS011;10775;42.678;26.324;2022-09-27T09:14:43;16.65;;;9.40;;
21235;SDS011;10775;42.678;26.324;2022-09-27T09:17:45;39.42;;;27.13;;
21235;SDS011;10775;42.678;26.324;2022-09-27T09:21:34;12.40;;;9.30;;
21235;SDS011;10775;42.678;26.324;2022-09-27T09:26:50;11.38;;;8.05;;
21235;SDS011;10775;42.678;26.324;2022-09-27T09:32:38;9.93;;;8.75;;
21235;SDS011;10775;42.678;26.324;2022-09-27T09:38:09;15.02;;;8.55;;
21235;SDS011;10775;42.678;26.324;2022-09-27T09:40:45;11.95;;;7.97;;
21235;SDS011;10775;42.678;26.324;2022-09-27T09:43:28;10.68;;;8.50;;
21235;SDS011;10775;42.678;26.324;2022-09-27T09:46:09;11.90;;;8.27;;
21235;SDS011;10775;42.678;26.324;2022-09-27T09:51:26;10.20;;;7.82;;
21235;SDS011;10775;42.678;26.324;2022-09-27T09:54:14;16.38;;;10.73;;
21235;SDS011;10775;42.678;26.324;2022-09-27T09:56:49;9.95;;;8.13;;
21235;SDS011;10775;42.678;26.324;2022-09-27T09:59:58;8.98;;;7.85;;
21235;SDS011;10775;42.678;26.324;2022-09-27T10:02:36;14.13;;;8.93;;
21235;SDS011;10775;42.678;26.324;2022-09-27T10:05:04;26.10;;;15.88;;
21235;SDS011;10775;42.678;26.324;2022-09-27T10:07:32;15.10;;;9.38;;
21235;SDS011;10775;42.678;26.324;2022-09-27T10:10:01;11.60;;;8.13;;
21235;SDS011;10775;42.678;26.324;2022-09-27T10:12:29;12.50;;;8.15;;
21235;SDS011;10775;42.678;26.324;2022-09-27T10:14:59;12.88;;;8.82;;
21235;SDS011;10775;42.678;26.324;2022-09-27T10:17:32;10.05;;;8.07;;
21235;SDS011;10775;42.678;26.324;2022-09-27T10:20:02;11.30;;;7.78;;
21235;SDS011;10775;42.678;26.324;2022-09-27T10:22:37;10.57;;;8.43;;
21235;SDS011;10775;42.678;26.324;2022-09-27T10:25:07;11.82;;;8.35;;
21235;SDS011;10775;42.678;26.324;2022-09-27T10:27:41;9.65;;;7.95;;
21235;SDS011;10775;42.678;26.324;2022-09-27T10:30:29;10.25;;;8.68;;
21235;SDS011;10775;42.678;26.324;2022-09-27T10:32:57;10.40;;;7.72;;
21235;SDS011;10775;42.678;26.324;2022-09-27T10:35:38;12.45;;;8.02;;
21235;SDS011;10775;42.678;26.324;2022-09-27T10:38:26;11.60;;;7.25;;
21235;SDS011;10775;42.678;26.324;2022-09-27T10:40:55;15.32;;;7.57;;
21235;SDS011;10775;42.678;26.324;2022-09-27T10:43:29;24.17;;;14.50;;
21235;SDS011;10775;42.678;26.324;2022-09-27T10:46:18;12.88;;;9.38;;
21235;SDS011;10775;42.678;26.324;2022-09-27T10:49:06;13.57;;;8.75;;
21235;SDS011;10775;42.678;26.324;2022-09-27T10:51:53;13.10;;;8.07;;
21235;SDS011;10775;42.678;26.324;2022-09-27T10:54:31;13.73;;;8.40;;
21235;SDS011;10775;42.678;26.324;2022-09-27T10:56:59;13.77;;;8.40;;
21235;SDS011;10775;42.678;26.324;2022-09-27T10:59:32;11.18;;;7.70;;
21235;SDS011;10775;42.678;26.324;2022-09-27T11:01:58;10.85;;;8.15;;
21235;SDS011;10775;42.678;26.324;2022-09-27T11:04:29;14.30;;;7.95;;
21235;SDS011;10775;42.678;26.324;2022-09-27T11:09:46;14.85;;;8.63;;
21235;SDS011;10775;42.678;26.324;2022-09-27T11:12:14;17.08;;;8.40;;
21235;SDS011;10775;42.678;26.324;2022-09-27T11:14:42;9.48;;;7.32;;
21235;SDS011;10775;42.678;26.324;2022-09-27T11:17:42;12.38;;;9.00;;
21235;SDS011;10775;42.678;26.324;2022-09-27T11:20:20;13.10;;;8.20;;
21235;SDS011;10775;42.678;26.324;2022-09-27T11:22:59;9.65;;;7.07;;
21235;SDS011;10775;42.678;26.324;2022-09-27T11:37:14;14.52;;;8.88;;
21235;SDS011;10775;42.678;26.324;2022-09-27T11:45:25;14.32;;;9.07;;
21235;SDS011;10775;42.678;26.324;2022-09-27T11:57:24;12.40;;;8.50;;
21235;SDS011;10775;42.678;26.324;2022-09-27T11:59:57;19.13;;;12.30;;
21235;SDS011;10775;42.678;26.324;2022-09-27T12:08:26;15.85;;;10.52;;
21235;SDS011;10775;42.678;26.324;2022-09-27T12:14:01;10.90;;;7.70;;
21235;SDS011;10775;42.678;26.324;2022-09-27T12:16:28;10.48;;;7.07;;
21235;SDS011;10775;42.678;26.324;2022-09-27T12:18:56;18.20;;;9.38;;
21235;SDS011;10775;42.678;26.324;2022-09-27T12:21:23;11.70;;;7.97;;
21235;SDS011;10775;42.678;26.324;2022-09-27T12:23:52;13.82;;;8.85;;
21235;SDS011;10775;42.678;26.324;2022-09-27T12:26:33;13.25;;;8.98;;
21235;SDS011;10775;42.678;26.324;2022-09-27T12:29:13;17.58;;;9.13;;
21235;SDS011;10775;42.678;26.324;2022-09-27T12:37:02;12.60;;;7.85;;
21235;SDS011;10775;42.678;26.324;2022-09-27T12:42:06;13.63;;;7.80;;
21235;SDS011;10775;42.678;26.324;2022-09-27T12:44:43;12.30;;;7.40;;
21235;SDS011;10775;42.678;26.324;2022-09-27T12:52:36;12.38;;;8.35;;
21235;SDS011;10775;42.678;26.324;2022-09-27T12:55:16;10.48;;;8.02;;
21235;SDS011;10775;42.678;26.324;2022-09-27T12:58:05;12.13;;;7.78;;
21235;SDS011;10775;42.678;26.324;2022-09-27T13:00:56;9.02;;;6.85;;
21235;SDS011;10775;42.678;26.324;2022-09-27T13:06:06;10.07;;;7.60;;
21235;SDS011;10775;42.678;26.324;2022-09-27T13:08:51;10.00;;;8.05;;
21235;SDS011;10775;42.678;26.324;2022-09-27T13:11:46;16.95;;;11.45;;
21235;SDS011;10775;42.678;26.324;2022-09-27T13:14:34;11.90;;;8.05;;
21235;SDS011;10775;42.678;26.324;2022-09-27T13:17:30;11.35;;;8.05;;
21235;SDS011;10775;42.678;26.324;2022-09-27T13:19:55;15.95;;;9.15;;
21235;SDS011;10775;42.678;26.324;2022-09-27T13:22:37;14.57;;;8.80;;
21235;SDS011;10775;42.678;26.324;2022-09-27T13:31:04;11.32;;;7.60;;
21235;SDS011;10775;42.678;26.324;2022-09-27T13:33:50;15.25;;;10.68;;
21235;SDS011;10775;42.678;26.324;2022-09-27T13:46:46;11.90;;;7.00;;
21235;SDS011;10775;42.678;26.324;2022-09-27T13:49:27;19.25;;;11.18;;
21235;SDS011;10775;42.678;26.324;2022-09-27T13:52:31;14.68;;;11.07;;
21235;SDS011;10775;42.678;26.324;2022-09-27T13:55:01;14.00;;;7.38;;
21235;SDS011;10775;42.678;26.324;2022-09-27T14:00:12;10.75;;;7.60;;
21235;SDS011;10775;42.678;26.324;2022-09-27T14:03:35;14.95;;;8.90;;
21235;SDS011;10775;42.678;26.324;2022-09-27T14:09:03;12.85;;;8.13;;
21235;SDS011;10775;42.678;26.324;2022-09-27T14:11:12;9.02;;;6.63;;
21235;SDS011;10775;42.678;26.324;2022-09-27T14:13:42;9.95;;;7.18;;
21235;SDS011;10775;42.678;26.324;2022-09-27T14:16:12;12.02;;;7.15;;
21235;SDS011;10775;42.678;26.324;2022-09-27T14:18:50;9.38;;;7.22;;
21235;SDS011;10775;42.678;26.324;2022-09-27T14:23:50;14.03;;;8.03;;
21235;SDS011;10775;42.678;26.324;2022-09-27T14:26:26;10.88;;;8.23;;
21235;SDS011;10775;42.678;26.324;2022-09-27T14:28:53;13.52;;;8.00;;
21235;SDS011;10775;42.678;26.324;2022-09-27T14:31:24;11.90;;;7.80;;
21235;SDS011;10775;42.678;26.324;2022-09-27T14:33:50;16.30;;;7.47;;
21235;SDS011;10775;42.678;26.324;2022-09-27T14:36:30;14.98;;;8.70;;
21235;SDS011;10775;42.678;26.324;2022-09-27T14:39:32;11.93;;;8.23;;
21235;SDS011;10775;42.678;26.324;2022-09-27T14:42:02;18.15;;;10.82;;
21235;SDS011;10775;42.678;26.324;2022-09-27T14:44:42;19.38;;;9.23;;
21235;SDS011;10775;42.678;26.324;2022-09-27T14:47:15;13.73;;;8.93;;
21235;SDS011;10775;42.678;26.324;2022-09-27T14:49:50;18.27;;;9.20;;
21235;SDS011;10775;42.678;26.324;2022-09-27T14:52:22;17.50;;;8.68;;
21235;SDS011;10775;42.678;26.324;2022-09-27T14:55:14;18.33;;;9.38;;
21235;SDS011;10775;42.678;26.324;2022-09-27T14:57:46;18.47;;;9.80;;
21235;SDS011;10775;42.678;26.324;2022-09-27T15:00:32;19.23;;;8.02;;
21235;SDS011;10775;42.678;26.324;2022-09-27T15:03:01;14.70;;;8.15;;
21235;SDS011;10775;42.678;26.324;2022-09-27T15:08:03;8.98;;;6.55;;
21235;SDS011;10775;42.678;26.324;2022-09-27T15:10:31;11.23;;;6.50;;
21235;SDS011;10775;42.678;26.324;2022-09-27T15:12:59;6.83;;;4.90;;
21235;SDS011;10775;42.678;26.324;2022-09-27T15:15:32;7.50;;;4.50;;
21235;SDS011;10775;42.678;26.324;2022-09-27T15:18:00;10.18;;;4.40;;
21235;SDS011;10775;42.678;26.324;2022-09-27T15:20:29;11.63;;;5.82;;
21235;SDS011;10775;42.678;26.324;2022-09-27T15:22:57;9.95;;;6.43;;
21235;SDS011;10775;42.678;26.324;2022-09-27T15:25:28;8.90;;;4.18;;
21235;SDS011;10775;42.678;26.324;2022-09-27T15:30:37;9.65;;;5.00;;
21235;SDS011;10775;42.678;26.324;2022-09-27T15:33:06;7.47;;;4.55;;
21235;SDS011;10775;42.678;26.324;2022-09-27T15:35:55;7.13;;;3.70;;
21235;SDS011;10775;42.678;26.324;2022-09-27T15:45:54;10.50;;;4.93;;
21235;SDS011;10775;42.678;26.324;2022-09-27T15:48:22;7.30;;;4.53;;
21235;SDS011;10775;42.678;26.324;2022-09-27T15:50:48;7.60;;;4.82;;
21235;SDS011;10775;42.678;26.324;2022-09-27T15:55:58;19.77;;;10.88;;
21235;SDS011;10775;42.678;26.324;2022-09-27T15:58:25;13.75;;;7.05;;
21235;SDS011;10775;42.678;26.324;2022-09-27T16:00:53;10.60;;;6.70;;
21235;SDS011;10775;42.678;26.324;2022-09-27T16:03:20;8.48;;;5.07;;
21235;SDS011;10775;42.678;26.324;2022-09-27T16:05:47;12.80;;;5.25;;
21235;SDS011;10775;42.678;26.324;2022-09-27T16:08:12;11.07;;;4.85;;
21235;SDS011;10775;42.678;26.324;2022-09-27T16:10:38;8.05;;;5.28;;
21235;SDS011;10775;42.678;26.324;2022-09-27T16:13:10;13.25;;;6.60;;
21235;SDS011;10775;42.678;26.324;2022-09-27T16:15:36;16.25;;;6.65;;
21235;SDS011;10775;42.678;26.324;2022-09-27T16:18:02;11.35;;;4.72;;
21235;SDS011;10775;42.678;26.324;2022-09-27T16:20:28;7.47;;;4.82;;
21235;SDS011;10775;42.678;26.324;2022-09-27T16:22:54;8.63;;;5.10;;
21235;SDS011;10775;42.678;26.324;2022-09-27T16:25:20;12.25;;;5.90;;
21235;SDS011;10775;42.678;26.324;2022-09-27T16:27:47;11.98;;;5.13;;
21235;SDS011;10775;42.678;26.324;2022-09-27T16:30:14;6.50;;;4.47;;
21235;SDS011;10775;42.678;26.324;2022-09-27T16:32:41;10.68;;;4.50;;
21235;SDS011;10775;42.678;26.324;2022-09-27T16:35:08;8.98;;;5.57;;
21235;SDS011;10775;42.678;26.324;2022-09-27T16:37:35;13.50;;;7.65;;
21235;SDS011;10775;42.678;26.324;2022-09-27T16:40:01;14.65;;;7.03;;
21235;SDS011;10775;42.678;26.324;2022-09-27T16:42:28;10.27;;;6.25;;
21235;SDS011;10775;42.678;26.324;2022-09-27T16:44:54;9.07;;;5.72;;
21235;SDS011;10775;42.678;26.324;2022-09-27T16:47:19;10.13;;;6.45;;
21235;SDS011;10775;42.678;26.324;2022-09-27T16:49:45;12.38;;;6.50;;
21235;SDS011;10775;42.678;26.324;2022-09-27T16:52:29;9.10;;;5.95;;
21235;SDS011;10775;42.678;26.324;2022-09-27T16:54:56;13.98;;;6.90;;
21235;SDS011;10775;42.678;26.324;2022-09-27T16:57:23;10.73;;;5.55;;
21235;SDS011;10775;42.678;26.324;2022-09-27T16:59:49;8.25;;;5.40;;
21235;SDS011;10775;42.678;26.324;2022-09-27T17:02:14;9.43;;;6.47;;
21235;SDS011;10775;42.678;26.324;2022-09-27T17:04:42;17.10;;;9.93;;
21235;SDS011;10775;42.678;26.324;2022-09-27T17:07:08;21.17;;;9.02;;
21235;SDS011;10775;42.678;26.324;2022-09-27T17:09:33;12.20;;;6.63;;
21235;SDS011;10775;42.678;26.324;2022-09-27T17:11:59;13.88;;;6.75;;
21235;SDS011;10775;42.678;26.324;2022-09-27T17:14:25;10.23;;;6.03;;
21235;SDS011;10775;42.678;26.324;2022-09-27T17:16:51;9.73;;;5.95;;
21235;SDS011;10775;42.678;26.324;2022-09-27T17:19:17;9.38;;;6.45;;
21235;SDS011;10775;42.678;26.324;2022-09-27T17:21:43;11.77;;;8.27;;
21235;SDS011;10775;42.678;26.324;2022-09-27T17:24:09;16.58;;;9.00;;
21235;SDS011;10775;42.678;26.324;2022-09-27T17:26:35;13.10;;;7.30;;